createdAt,value
2022-10-23T00:01:26.670Z,70.56
2022-10-23T00:03:59.356Z,70.67
2022-10-23T00:06:28.227Z,70.50
2022-10-23T00:08:56.285Z,70.18
2022-10-23T00:11:26.135Z,69.88
2022-10-23T00:13:55.647Z,69.90
2022-10-23T00:16:22.413Z,69.55
2022-10-23T00:18:49.403Z,69.67
2022-10-23T00:21:17.145Z,69.71
2022-10-23T00:23:44.036Z,69.18
2022-10-23T00:26:11.217Z,69.50
2022-10-23T00:28:38.167Z,69.58
2022-10-23T00:31:05.705Z,69.19
2022-10-23T00:33:33.237Z,69.14
2022-10-23T00:36:00.133Z,69.17
2022-10-23T00:38:26.791Z,69.21
2022-10-23T00:40:53.271Z,69.17
2022-10-23T00:43:23.557Z,68.82
2022-10-23T00:45:50.217Z,68.70
2022-10-23T00:48:17.871Z,68.95
2022-10-23T00:50:46.776Z,69.01
2022-10-23T00:53:15.499Z,68.92
2022-10-23T00:55:45.120Z,69.07
2022-10-23T00:58:11.657Z,68.89
2022-10-23T01:00:47.163Z,69.28
2022-10-23T01:03:17.503Z,69.46
2022-10-23T01:06:12.595Z,68.98
2022-10-23T01:09:04.618Z,68.91
2022-10-23T01:11:35.494Z,68.80
2022-10-23T01:14:29.510Z,68.64
2022-10-23T01:17:33.638Z,68.61
2022-10-23T01:20:27.499Z,69.00
2022-10-23T01:23:14.810Z,68.51
2022-10-23T01:26:01.794Z,68.52
2022-10-23T01:28:39.687Z,68.11
2022-10-23T01:31:16.271Z,68.88
2022-10-23T01:33:57.626Z,68.94
2022-10-23T01:36:30.261Z,69.36
2022-10-23T01:41:52.987Z,69.44
2022-10-23T01:44:31.907Z,69.17
2022-10-23T01:46:58.624Z,68.79
2022-10-23T01:49:25.308Z,69.03
2022-10-23T01:52:00.227Z,68.41
2022-10-23T01:54:31.839Z,69.00
2022-10-23T01:57:00.142Z,68.66
2022-10-23T01:59:35.179Z,69.04
2022-10-23T02:02:04.444Z,69.40
2022-10-23T02:04:36.378Z,69.27
2022-10-23T02:07:03.223Z,69.14
2022-10-23T02:09:30.863Z,69.01
2022-10-23T02:12:08.834Z,69.88
2022-10-23T02:15:19.979Z,69.92
2022-10-23T02:18:02.752Z,68.89
2022-10-23T02:20:35.468Z,69.11
2022-10-23T02:23:11.041Z,69.17
2022-10-23T02:25:51.551Z,69.23
2022-10-23T02:28:27.037Z,69.23
2022-10-23T02:30:57.240Z,69.63
2022-10-23T02:33:27.956Z,69.93
2022-10-23T02:35:54.741Z,69.01
2022-10-23T02:38:30.148Z,69.36
2022-10-23T02:41:16.853Z,69.32
2022-10-23T02:44:05.133Z,68.66
2022-10-23T02:47:07.749Z,68.82
2022-10-23T02:50:00.543Z,68.71
2022-10-23T02:52:47.439Z,68.83
2022-10-23T02:55:39.800Z,68.64
2022-10-23T02:58:13.129Z,69.42
2022-10-23T03:00:49.115Z,68.70
2022-10-23T03:03:24.593Z,68.68
2022-10-23T03:05:51.383Z,68.60
2022-10-23T03:08:17.939Z,68.26
2022-10-23T03:10:44.465Z,68.53
2022-10-23T03:13:11.631Z,69.00
2022-10-23T03:15:38.210Z,69.04
2022-10-23T03:18:05.092Z,68.82
2022-10-23T03:20:31.711Z,68.93
2022-10-23T03:22:58.195Z,68.75
2022-10-23T03:25:24.680Z,68.60
2022-10-23T03:27:51.227Z,68.87
2022-10-23T03:30:17.799Z,68.98
2022-10-23T03:32:44.688Z,68.43
2022-10-23T03:35:11.372Z,68.81
2022-10-23T03:37:37.812Z,68.54
2022-10-23T03:40:04.872Z,69.03
2022-10-23T03:42:31.483Z,69.44
2022-10-23T03:44:57.998Z,69.26
2022-10-23T03:47:24.595Z,69.75
2022-10-23T03:49:51.131Z,69.48
2022-10-23T03:52:17.674Z,69.62
2022-10-23T03:54:44.236Z,69.45
2022-10-23T03:57:10.903Z,69.11
2022-10-23T03:59:37.593Z,69.08
2022-10-23T04:02:04.395Z,69.63
2022-10-23T04:04:30.961Z,69.59
2022-10-23T04:06:57.424Z,69.84
2022-10-23T04:09:24.125Z,69.65
2022-10-23T04:11:50.848Z,69.40
2022-10-23T04:14:37.445Z,69.37
2022-10-23T04:17:06.224Z,69.06
2022-10-23T04:19:32.776Z,69.43
2022-10-23T04:21:59.267Z,69.42
2022-10-23T04:24:26.813Z,68.84
2022-10-23T04:26:53.567Z,69.07
2022-10-23T04:29:20.179Z,68.71
2022-10-23T04:31:46.937Z,69.51
2022-10-23T04:34:13.540Z,69.13
2022-10-23T04:36:40.105Z,68.97
2022-10-23T04:39:06.626Z,69.80
2022-10-23T04:41:33.129Z,69.87
2022-10-23T04:43:59.689Z,69.73
2022-10-23T04:46:26.257Z,70.03
2022-10-23T04:48:52.825Z,70.07
2022-10-23T04:51:19.459Z,70.05
2022-10-23T04:53:46.056Z,70.31
2022-10-23T04:56:16.022Z,70.34
2022-10-23T04:58:42.691Z,70.96
2022-10-23T05:01:10.206Z,71.37
2022-10-23T05:03:38.198Z,71.06
2022-10-23T05:06:05.491Z,70.88
2022-10-23T05:08:32.709Z,70.50
2022-10-23T05:10:59.291Z,70.57
2022-10-23T05:13:25.854Z,70.99
2022-10-23T05:15:53.524Z,70.42
2022-10-23T05:18:27.798Z,71.58
2022-10-23T05:21:02.341Z,70.68
2022-10-23T05:23:33.787Z,70.88
2022-10-23T05:26:00.489Z,70.71
2022-10-23T05:28:27.131Z,70.98
2022-10-23T05:30:53.860Z,71.58
2022-10-23T05:33:20.444Z,70.79
2022-10-23T05:35:47.203Z,71.24
2022-10-23T05:38:15.873Z,70.71
2022-10-23T05:40:42.675Z,70.43
2022-10-23T05:43:09.603Z,70.56
2022-10-23T05:45:36.324Z,70.49
2022-10-23T05:48:11.110Z,71.08
2022-10-23T05:50:49.103Z,71.06
2022-10-23T05:53:15.922Z,71.00
2022-10-23T05:55:42.561Z,71.15
2022-10-23T05:58:09.294Z,70.99
2022-10-23T06:00:36.016Z,72.03
2022-10-23T06:03:02.908Z,71.44
2022-10-23T06:05:29.719Z,72.04
2022-10-23T06:08:00.102Z,71.90
2022-10-23T06:10:27.675Z,72.47
2022-10-23T06:12:54.605Z,71.77
2022-10-23T06:15:21.269Z,72.10
2022-10-23T06:17:47.947Z,72.32
2022-10-23T06:20:14.780Z,72.73
2022-10-23T06:22:41.738Z,73.12
2022-10-23T06:25:09.157Z,73.57
2022-10-23T06:27:35.666Z,73.55
2022-10-23T06:30:02.239Z,73.91
2022-10-23T06:32:32.257Z,74.44
2022-10-23T06:34:58.861Z,74.49
2022-10-23T06:37:25.892Z,74.97
2022-10-23T06:39:52.712Z,74.21
2022-10-23T06:42:19.369Z,74.39
2022-10-23T06:44:46.016Z,73.49
2022-10-23T06:47:12.734Z,73.48
2022-10-23T06:49:39.458Z,73.18
2022-10-23T06:52:11.055Z,72.76
2022-10-23T06:54:44.984Z,73.02
2022-10-23T06:57:11.491Z,72.71
2022-10-23T06:59:37.985Z,72.46
2022-10-23T07:02:04.501Z,72.43
2022-10-23T07:04:31.109Z,72.36
2022-10-23T07:06:57.588Z,71.51
2022-10-23T07:09:24.533Z,71.18
2022-10-23T07:11:51.102Z,70.94
2022-10-23T07:14:17.634Z,70.90
2022-10-23T07:16:44.144Z,70.50
2022-10-23T07:19:10.739Z,70.47
2022-10-23T07:21:37.197Z,69.77
2022-10-23T07:24:04.405Z,69.88
2022-10-23T07:26:31.332Z,70.26
2022-10-23T07:28:57.958Z,70.02
2022-10-23T07:31:28.162Z,69.28
2022-10-23T07:33:55.246Z,68.82
2022-10-23T07:36:21.875Z,68.85
2022-10-23T07:38:48.520Z,69.18
2022-10-23T07:41:15.215Z,68.80
2022-10-23T07:43:41.817Z,70.35
2022-10-23T07:46:08.731Z,70.03
2022-10-23T07:48:36.450Z,69.76
2022-10-23T07:51:06.538Z,69.64
2022-10-23T07:53:33.160Z,69.63
2022-10-23T07:56:02.499Z,70.03
2022-10-23T07:58:30.427Z,69.90
2022-10-23T08:01:00.468Z,69.53
2022-10-23T08:03:30.043Z,68.55
2022-10-23T08:05:56.815Z,69.27
2022-10-23T08:08:24.398Z,69.79
2022-10-23T08:10:53.578Z,70.26
2022-10-23T08:13:21.113Z,71.02
2022-10-23T08:15:50.295Z,70.73
2022-10-23T08:18:16.939Z,70.53
2022-10-23T08:20:46.133Z,71.02
2022-10-23T08:23:15.907Z,71.04
2022-10-23T08:25:42.644Z,70.73
2022-10-23T08:28:09.390Z,69.86
2022-10-23T08:30:37.273Z,70.42
2022-10-23T08:33:07.611Z,69.78
2022-10-23T08:35:38.025Z,69.88
2022-10-23T08:38:05.131Z,69.51
2022-10-23T08:40:31.900Z,69.67
2022-10-23T08:43:12.366Z,69.58
2022-10-23T08:45:53.615Z,70.02
2022-10-23T08:48:43.630Z,69.40
2022-10-23T08:51:25.245Z,69.67
2022-10-23T08:54:06.420Z,69.05
2022-10-23T08:56:41.237Z,68.70
2022-10-23T08:59:59.034Z,69.12
2022-10-23T09:02:25.592Z,68.00
2022-10-23T09:04:55.623Z,67.73
2022-10-23T09:07:50.929Z,67.80
2022-10-23T09:10:51.705Z,67.02
2022-10-23T09:13:40.278Z,67.70
2022-10-23T09:16:41.787Z,66.99
2022-10-23T09:19:22.096Z,66.76
2022-10-23T09:21:50.130Z,66.18
2022-10-23T09:24:19.931Z,66.26
2022-10-23T09:26:48.682Z,65.64
2022-10-23T09:32:05.425Z,65.18
2022-10-23T09:34:34.853Z,64.42
2022-10-23T09:37:27.737Z,64.04
2022-10-23T09:40:15.031Z,63.98
2022-10-23T09:42:55.402Z,64.01
2022-10-23T09:45:24.065Z,63.64
2022-10-23T09:47:50.487Z,63.46
2022-10-23T09:50:20.434Z,63.70
2022-10-23T09:52:54.489Z,64.28
2022-10-23T09:55:25.013Z,63.97
2022-10-23T09:57:53.881Z,64.20
2022-10-23T10:00:25.915Z,63.43
2022-10-23T10:02:57.994Z,63.66
2022-10-23T10:05:35.065Z,64.20
2022-10-23T10:08:13.393Z,65.01
2022-10-23T10:10:49.990Z,64.38
2022-10-23T10:13:34.748Z,64.10
2022-10-23T10:16:31.230Z,63.55
2022-10-23T10:19:14.317Z,64.57
2022-10-23T10:21:51.813Z,64.84
2022-10-23T10:24:23.070Z,65.31
2022-10-23T10:27:08.190Z,65.43
2022-10-23T10:30:10.717Z,64.63
2022-10-23T10:32:58.712Z,64.08
2022-10-23T10:35:42.772Z,64.71
2022-10-23T10:38:43.426Z,64.92
2022-10-23T10:41:38.622Z,64.26
2022-10-23T10:44:23.131Z,64.49
2022-10-23T10:47:05.430Z,63.92
2022-10-23T10:49:40.159Z,63.02
2022-10-23T10:52:31.459Z,61.97
2022-10-23T10:55:13.382Z,62.91
2022-10-23T10:57:45.248Z,62.52
2022-10-23T11:00:21.250Z,62.38
2022-10-23T11:03:05.916Z,64.12
2022-10-23T11:05:38.390Z,64.86
2022-10-23T11:08:44.396Z,64.47
2022-10-23T11:11:37.672Z,63.85
2022-10-23T11:14:04.435Z,62.68
2022-10-23T11:16:37.782Z,63.47
2022-10-23T11:19:18.618Z,63.02
2022-10-23T11:21:54.036Z,63.16
2022-10-23T11:25:02.171Z,63.76
2022-10-23T11:27:53.131Z,63.73
2022-10-23T11:30:29.877Z,62.89
2022-10-23T11:33:24.006Z,63.72
2022-10-23T11:36:19.861Z,64.04
2022-10-23T11:38:50.407Z,64.58
2022-10-23T11:41:29.294Z,64.55
2022-10-23T11:44:01.203Z,65.88
2022-10-23T11:46:33.943Z,65.88
2022-10-23T11:49:00.633Z,65.70
2022-10-23T11:51:37.270Z,65.36
2022-10-23T11:54:12.683Z,64.96
2022-10-23T11:57:10.738Z,64.94
2022-10-23T11:59:49.589Z,64.76
2022-10-23T12:02:36.281Z,66.09
2022-10-23T12:05:26.718Z,68.30
2022-10-23T12:07:57.976Z,68.12
2022-10-23T12:10:33.789Z,68.69
2022-10-23T12:13:04.018Z,70.02
2022-10-23T12:15:32.883Z,68.46
2022-10-23T12:18:14.927Z,67.92
2022-10-23T12:21:01.970Z,69.23
2022-10-23T12:24:03.828Z,68.37
2022-10-23T12:26:33.111Z,69.30
2022-10-23T12:29:21.319Z,69.27
2022-10-23T12:32:05.821Z,68.13
2022-10-23T12:34:48.505Z,66.67
2022-10-23T12:37:47.068Z,66.92
2022-10-23T12:40:13.577Z,65.77
2022-10-23T12:42:41.228Z,65.23
2022-10-23T12:45:10.541Z,65.84
2022-10-23T12:50:17.857Z,67.11
2022-10-23T12:52:59.744Z,67.35
2022-10-23T12:55:32.181Z,67.06
2022-10-23T12:58:01.567Z,67.54
2022-10-23T13:00:28.065Z,68.39
2022-10-23T13:03:04.063Z,68.52
2022-10-23T13:05:32.434Z,68.57
2022-10-23T13:08:02.375Z,69.39
2022-10-23T13:10:30.385Z,68.87
2022-10-23T13:13:03.075Z,70.64
2022-10-23T13:15:45.275Z,70.20
2022-10-23T13:18:14.176Z,69.61
2022-10-23T13:20:57.187Z,69.26
2022-10-23T13:23:31.099Z,69.43
2022-10-23T13:26:25.685Z,69.36
2022-10-23T13:28:52.674Z,69.02
2022-10-23T13:31:33.554Z,69.77
2022-10-23T13:33:59.966Z,70.10
2022-10-23T13:36:34.872Z,69.46
2022-10-23T13:39:10.369Z,70.01
2022-10-23T13:41:40.831Z,69.98
2022-10-23T13:44:11.655Z,72.73
2022-10-23T13:46:38.103Z,74.90
2022-10-23T13:49:04.604Z,74.12
2022-10-23T13:51:41.747Z,73.03
2022-10-23T13:54:19.684Z,72.70
2022-10-23T13:56:46.792Z,72.14
2022-10-23T13:59:14.835Z,71.74
2022-10-23T14:01:42.590Z,72.07
2022-10-23T14:04:09.934Z,71.55
2022-10-23T14:06:37.202Z,71.22
2022-10-23T14:09:05.882Z,70.82
2022-10-23T14:11:34.548Z,70.27
2022-10-23T14:14:01.064Z,69.78
2022-10-23T14:16:28.365Z,70.05
2022-10-23T14:18:55.663Z,69.42
2022-10-23T14:21:24.199Z,68.94
2022-10-23T14:23:52.680Z,68.97
2022-10-23T14:26:24.881Z,70.05
2022-10-23T14:28:55.597Z,64.56
2022-10-23T14:31:22.807Z,67.04
2022-10-23T14:33:55.338Z,67.18
2022-10-23T14:36:22.915Z,66.76
2022-10-23T14:38:53.542Z,67.88
2022-10-23T14:41:22.228Z,71.13
2022-10-23T14:43:48.747Z,70.79
2022-10-23T14:46:18.346Z,71.62
2022-10-23T14:48:46.314Z,71.62
2022-10-23T14:51:20.267Z,71.81
2022-10-23T14:53:47.064Z,71.55
2022-10-23T14:56:14.639Z,72.02
2022-10-23T14:58:41.205Z,72.59
2022-10-23T15:01:08.024Z,71.85
2022-10-23T15:03:34.586Z,71.59
2022-10-23T15:06:01.117Z,72.84
2022-10-23T15:08:27.629Z,73.37
2022-10-23T15:10:54.178Z,73.30
2022-10-23T15:13:20.657Z,73.80
2022-10-23T15:15:47.469Z,72.50
2022-10-23T15:18:13.915Z,72.09
2022-10-23T15:20:41.579Z,68.60
2022-10-23T15:23:08.141Z,71.53
2022-10-23T15:25:34.679Z,67.45
2022-10-23T15:28:01.218Z,66.76
2022-10-23T15:30:27.779Z,66.14
2022-10-23T15:32:54.495Z,66.15
2022-10-23T15:35:21.104Z,66.24
2022-10-23T15:37:47.649Z,65.96
2022-10-23T15:40:14.150Z,65.18
2022-10-23T15:42:41.399Z,65.06
2022-10-23T15:45:09.711Z,64.62
2022-10-23T15:47:36.378Z,64.90
2022-10-23T15:50:03.731Z,63.83
2022-10-23T15:52:30.274Z,64.65
2022-10-23T15:54:56.843Z,65.71
2022-10-23T15:57:23.403Z,65.85
2022-10-23T15:59:49.896Z,65.28
2022-10-23T16:02:16.676Z,64.67
2022-10-23T16:04:43.215Z,64.25
2022-10-23T16:07:09.709Z,65.08
2022-10-23T16:09:36.233Z,64.29
2022-10-23T16:12:02.703Z,62.99
2022-10-23T16:14:29.190Z,63.64
2022-10-23T16:16:55.635Z,64.09
2022-10-23T16:19:22.153Z,67.96
2022-10-23T16:21:48.664Z,68.07
2022-10-23T16:24:15.267Z,67.96
2022-10-23T16:26:41.770Z,68.15
2022-10-23T16:29:09.036Z,68.56
2022-10-23T16:31:35.643Z,67.80
2022-10-23T16:34:04.469Z,68.60
2022-10-23T16:36:30.996Z,69.24
2022-10-23T16:38:57.476Z,67.58
2022-10-23T16:41:24.038Z,66.07
2022-10-23T16:43:50.507Z,64.86
2022-10-23T16:46:20.258Z,64.81
2022-10-23T16:48:47.721Z,63.23
2022-10-23T16:51:17.045Z,65.19
2022-10-23T16:53:44.713Z,64.61
2022-10-23T16:56:13.360Z,63.98
2022-10-23T16:58:39.845Z,62.91
2022-10-23T17:01:12.333Z,63.57
2022-10-23T17:03:42.873Z,62.99
2022-10-23T17:06:12.925Z,62.05
2022-10-23T17:08:40.207Z,62.55
2022-10-23T17:11:16.186Z,62.82
2022-10-23T17:13:59.138Z,61.87
2022-10-23T17:16:32.828Z,61.50
2022-10-23T17:18:59.455Z,62.54
2022-10-23T17:21:26.200Z,62.67
2022-10-23T17:23:52.818Z,64.37
2022-10-23T17:26:21.766Z,64.06
2022-10-23T17:28:48.323Z,65.73
2022-10-23T17:31:19.510Z,66.11
2022-10-23T17:33:48.161Z,67.51
2022-10-23T17:36:15.844Z,66.28
2022-10-23T17:38:43.595Z,65.91
2022-10-23T17:41:12.569Z,66.84
2022-10-23T17:43:39.549Z,69.81
2022-10-23T17:46:08.140Z,70.99
2022-10-23T17:48:35.787Z,72.77
2022-10-23T17:51:13.251Z,71.77
2022-10-23T17:53:43.162Z,71.75
2022-10-23T17:56:14.320Z,74.95
2022-10-23T17:58:40.794Z,74.54
2022-10-23T18:01:10.477Z,74.55
2022-10-23T18:03:38.326Z,75.45
2022-10-23T18:06:10.408Z,75.18
2022-10-23T18:08:38.242Z,73.72
2022-10-23T18:11:05.769Z,75.66
2022-10-23T18:13:34.756Z,76.78
2022-10-23T18:16:04.406Z,76.02
2022-10-23T18:18:31.187Z,76.82
2022-10-23T18:20:59.182Z,74.76
2022-10-23T18:23:27.504Z,73.94
2022-10-23T18:25:54.663Z,75.38
2022-10-23T18:28:21.178Z,75.94
2022-10-23T18:30:48.425Z,75.18
2022-10-23T18:33:15.972Z,77.27
2022-10-23T18:35:42.925Z,78.78
2022-10-23T18:38:09.916Z,79.30
2022-10-23T18:40:38.147Z,79.26
2022-10-23T18:43:11.607Z,78.74
2022-10-23T18:45:42.156Z,79.67
2022-10-23T18:48:10.061Z,81.11
2022-10-23T18:50:37.789Z,80.28
2022-10-23T18:53:04.792Z,82.82
2022-10-23T18:55:31.332Z,82.57
2022-10-23T18:57:57.826Z,81.92
2022-10-23T19:00:24.753Z,82.85
2022-10-23T19:02:52.444Z,85.12
2022-10-23T19:05:19.678Z,82.55
2022-10-23T19:07:48.558Z,81.32
2022-10-23T19:10:16.287Z,82.21
2022-10-23T19:12:43.151Z,83.05
2022-10-23T19:15:10.398Z,78.69
2022-10-23T19:17:37.443Z,79.47
2022-10-23T19:20:13.900Z,81.74
2022-10-23T19:22:46.501Z,82.36
2022-10-23T19:25:21.356Z,84.75
2022-10-23T19:27:48.772Z,84.63
2022-10-23T19:30:20.546Z,82.44
2022-10-23T19:32:51.137Z,81.02
2022-10-23T19:35:21.087Z,79.95
2022-10-23T19:37:48.125Z,82.62
2022-10-23T19:40:15.906Z,82.07
2022-10-23T19:42:43.207Z,82.04
2022-10-23T19:45:12.757Z,81.61
2022-10-23T19:47:40.061Z,83.15
2022-10-23T19:50:08.273Z,84.49
2022-10-23T19:52:35.538Z,86.84
2022-10-23T19:55:02.168Z,87.44
2022-10-23T19:57:29.207Z,89.04
2022-10-23T19:59:56.047Z,89.36
2022-10-23T20:02:22.737Z,87.11
2022-10-23T20:04:49.320Z,85.97
2022-10-23T20:07:16.030Z,83.08
2022-10-23T20:09:42.530Z,80.67
2022-10-23T20:12:09.021Z,80.76
2022-10-23T20:14:35.607Z,78.61
2022-10-23T20:17:02.149Z,78.42
2022-10-23T20:19:29.023Z,76.68
2022-10-23T20:21:55.624Z,76.13
2022-10-23T20:24:22.106Z,77.38
2022-10-23T20:26:52.789Z,78.38
2022-10-23T20:29:20.470Z,79.82
2022-10-23T20:31:47.616Z,79.07
2022-10-23T20:34:14.216Z,80.02
2022-10-23T20:36:46.390Z,79.65
2022-10-23T20:39:22.616Z,81.28
2022-10-23T20:41:49.102Z,81.58
2022-10-23T20:46:49.769Z,80.41
2022-10-23T20:49:17.270Z,80.11
2022-10-23T20:51:44.482Z,80.79
2022-10-23T20:54:11.596Z,80.94
2022-10-23T20:56:39.229Z,81.81
2022-10-23T20:59:13.117Z,85.84
2022-10-23T21:01:42.467Z,90.62
2022-10-23T21:04:13.225Z,88.38
2022-10-23T21:06:57.432Z,88.66
2022-10-23T21:09:30.267Z,89.41
2022-10-23T21:11:57.577Z,91.86
2022-10-23T21:14:27.451Z,89.58
2022-10-23T21:17:24.130Z,88.03
2022-10-23T21:19:51.434Z,92.95
2022-10-23T21:22:19.486Z,92.71
2022-10-23T21:24:46.298Z,89.84
2022-10-23T21:27:13.223Z,93.45
2022-10-23T21:29:40.070Z,96.11
2022-10-23T21:32:06.717Z,93.72
2022-10-23T21:34:33.598Z,95.13
2022-10-23T21:37:15.546Z,96.00
2022-10-23T21:39:44.383Z,99.09
2022-10-23T21:42:12.852Z,99.63
2022-10-23T21:44:40.017Z,97.02
2022-10-23T21:47:07.016Z,96.88
2022-10-23T21:49:33.758Z,92.50
2022-10-23T21:52:00.508Z,98.03
2022-10-23T21:54:27.172Z,95.47
2022-10-23T21:56:54.126Z,92.08
2022-10-23T21:59:24.409Z,90.27
2022-10-23T22:01:51.969Z,87.56
2022-10-23T22:04:20.633Z,84.77
2022-10-23T22:06:49.076Z,84.42
2022-10-23T22:09:18.546Z,86.72
2022-10-23T22:11:45.278Z,85.64
2022-10-23T22:14:12.178Z,85.81
2022-10-23T22:16:39.033Z,86.04
2022-10-23T22:19:05.734Z,85.27
2022-10-23T22:21:32.340Z,86.19
2022-10-23T22:24:00.657Z,79.71
2022-10-23T22:26:34.242Z,79.26
2022-10-23T22:29:04.848Z,77.80
2022-10-23T22:31:34.088Z,80.22
2022-10-23T22:34:13.113Z,80.75
2022-10-23T22:36:48.767Z,79.21
2022-10-23T22:39:15.391Z,80.48
2022-10-23T22:41:41.944Z,84.12
2022-10-23T22:44:11.610Z,84.63
2022-10-23T22:46:38.542Z,88.45
2022-10-23T22:51:33.682Z,87.44
2022-10-23T22:54:00.537Z,86.07
2022-10-23T22:56:29.783Z,86.10
2022-10-23T22:58:57.309Z,83.88
2022-10-23T23:01:31.293Z,84.00
2022-10-23T23:04:04.489Z,84.36
2022-10-23T23:06:45.509Z,82.94
2022-10-23T23:09:14.195Z,83.47
2022-10-23T23:11:51.416Z,83.82
2022-10-23T23:14:22.131Z,85.45
2022-10-23T23:16:50.788Z,83.35
2022-10-23T23:19:17.458Z,83.66
2022-10-23T23:21:43.999Z,82.79
2022-10-23T23:24:11.827Z,82.80
2022-10-23T23:26:41.169Z,82.16
2022-10-23T23:29:07.971Z,83.29
2022-10-23T23:31:34.631Z,83.55
2022-10-23T23:34:01.344Z,83.69
2022-10-23T23:36:28.412Z,84.87
2022-10-23T23:38:57.586Z,85.94
2022-10-23T23:41:25.848Z,85.06
2022-10-23T23:43:55.457Z,85.33
2022-10-23T23:46:22.602Z,84.48
2022-10-23T23:48:49.926Z,85.70
2022-10-23T23:51:21.930Z,85.69
2022-10-23T23:53:50.512Z,87.99
2022-10-23T23:56:19.092Z,88.38
2022-10-23T23:58:46.858Z,87.34
